sensor_id;sensor_type;location;lat;lon;timestamp;pressure;altitude;pressure_sealevel;temperature;humidity
52535;BME280;38443;53.164;5.802;2023-05-19T00:00:31;103074.38;;;6.74;100.00
52535;BME280;38443;53.164;5.802;2023-05-19T00:02:57;103074.31;;;6.71;100.00
52535;BME280;38443;53.164;5.802;2023-05-19T00:05:24;103080.50;;;6.71;100.00
52535;BME280;38443;53.164;5.802;2023-05-19T00:07:50;103072.56;;;6.73;100.00
52535;BME280;38443;53.164;5.802;2023-05-19T00:10:16;103073.41;;;6.70;100.00
52535;BME280;38443;53.164;5.802;2023-05-19T00:12:42;103066.31;;;6.71;100.00
52535;BME280;38443;53.164;5.802;2023-05-19T00:15:07;103064.53;;;6.71;100.00
52535;BME280;38443;53.164;5.802;2023-05-19T00:17:34;103066.28;;;6.69;100.00
52535;BME280;38443;53.164;5.802;2023-05-19T00:20:01;103059.16;;;6.68;100.00
52535;BME280;38443;53.164;5.802;2023-05-19T00:22:31;103059.13;;;6.67;100.00
52535;BME280;38443;53.164;5.802;2023-05-19T00:24:56;103063.56;;;6.66;100.00
52535;BME280;38443;53.164;5.802;2023-05-19T00:27:22;103065.25;;;6.63;100.00
52535;BME280;38443;53.164;5.802;2023-05-19T00:29:47;103066.19;;;6.65;100.00
52535;BME280;38443;53.164;5.802;2023-05-19T00:32:12;103055.44;;;6.60;100.00
52535;BME280;38443;53.164;5.802;2023-05-19T00:34:37;103057.22;;;6.59;100.00
52535;BME280;38443;53.164;5.802;2023-05-19T00:37:03;103051.75;;;6.55;100.00
52535;BME280;38443;53.164;5.802;2023-05-19T00:39:28;103061.50;;;6.54;100.00
52535;BME280;38443;53.164;5.802;2023-05-19T00:41:53;103057.00;;;6.50;100.00
52535;BME280;38443;53.164;5.802;2023-05-19T00:44:18;103051.72;;;6.52;100.00
52535;BME280;38443;53.164;5.802;2023-05-19T00:46:44;103048.03;;;6.47;100.00
52535;BME280;38443;53.164;5.802;2023-05-19T00:49:09;103050.72;;;6.48;100.00
52535;BME280;38443;53.164;5.802;2023-05-19T00:51:35;103048.13;;;6.50;100.00
52535;BME280;38443;53.164;5.802;2023-05-19T00:54:01;103055.16;;;6.48;100.00
52535;BME280;38443;53.164;5.802;2023-05-19T00:56:27;103047.19;;;6.49;100.00
52535;BME280;38443;53.164;5.802;2023-05-19T00:58:52;103044.56;;;6.51;100.00
52535;BME280;38443;53.164;5.802;2023-05-19T01:01:18;103053.34;;;6.47;100.00
52535;BME280;38443;53.164;5.802;2023-05-19T01:03:46;103049.81;;;6.46;100.00
52535;BME280;38443;53.164;5.802;2023-05-19T01:06:12;103047.13;;;6.46;100.00
52535;BME280;38443;53.164;5.802;2023-05-19T01:08:37;103051.59;;;6.47;100.00
52535;BME280;38443;53.164;5.802;2023-05-19T01:11:06;103047.94;;;6.42;100.00
52535;BME280;38443;53.164;5.802;2023-05-19T01:13:32;103050.59;;;6.42;100.00
52535;BME280;38443;53.164;5.802;2023-05-19T01:18:41;103042.56;;;6.41;100.00
52535;BME280;38443;53.164;5.802;2023-05-19T01:32:52;103037.00;;;6.30;100.00
52535;BME280;38443;53.164;5.802;2023-05-19T01:35:21;103036.06;;;6.28;100.00
52535;BME280;38443;53.164;5.802;2023-05-19T01:37:48;103037.81;;;6.27;100.00
52535;BME280;38443;53.164;5.802;2023-05-19T01:40:14;103035.13;;;6.26;100.00
52535;BME280;38443;53.164;5.802;2023-05-19T01:42:39;103033.38;;;6.26;100.00
52535;BME280;38443;53.164;5.802;2023-05-19T01:45:06;103028.81;;;6.21;100.00
52535;BME280;38443;53.164;5.802;2023-05-19T01:47:36;103033.28;;;6.22;100.00
52535;BME280;38443;53.164;5.802;2023-05-19T01:50:03;103035.94;;;6.22;100.00
52535;BME280;38443;53.164;5.802;2023-05-19T01:52:28;103025.28;;;6.22;100.00
52535;BME280;38443;53.164;5.802;2023-05-19T01:54:53;103028.84;;;6.22;100.00
52535;BME280;38443;53.164;5.802;2023-05-19T01:57:49;103024.38;;;6.21;100.00
52535;BME280;38443;53.164;5.802;2023-05-19T02:05:41;103019.88;;;6.18;100.00
52535;BME280;38443;53.164;5.802;2023-05-19T02:08:31;103018.09;;;6.17;100.00
52535;BME280;38443;53.164;5.802;2023-05-19T02:11:08;103013.59;;;6.15;100.00
52535;BME280;38443;53.164;5.802;2023-05-19T02:13:36;103010.00;;;6.13;100.00
52535;BME280;38443;53.164;5.802;2023-05-19T02:16:04;103014.47;;;6.14;100.00
52535;BME280;38443;53.164;5.802;2023-05-19T02:18:33;103014.50;;;6.15;100.00
52535;BME280;38443;53.164;5.802;2023-05-19T02:21:00;103009.19;;;6.15;100.00
52535;BME280;38443;53.164;5.802;2023-05-19T02:23:25;103011.94;;;6.20;100.00
52535;BME280;38443;53.164;5.802;2023-05-19T02:25:50;103015.41;;;6.16;100.00
52535;BME280;38443;53.164;5.802;2023-05-19T02:28:16;103012.78;;;6.17;100.00
52535;BME280;38443;53.164;5.802;2023-05-19T02:30:41;103010.91;;;6.13;100.00
52535;BME280;38443;53.164;5.802;2023-05-19T02:33:06;103011.84;;;6.15;100.00
52535;BME280;38443;53.164;5.802;2023-05-19T02:35:32;103012.59;;;6.10;100.00
52535;BME280;38443;53.164;5.802;2023-05-19T02:37:57;103000.19;;;6.10;100.00
52535;BME280;38443;53.164;5.802;2023-05-19T02:40:23;103016.97;;;6.08;100.00
52535;BME280;38443;53.164;5.802;2023-05-19T02:42:48;103009.91;;;6.08;100.00
52535;BME280;38443;53.164;5.802;2023-05-19T02:45:14;103007.13;;;6.04;100.00
52535;BME280;38443;53.164;5.802;2023-05-19T02:47:39;103014.31;;;6.08;100.00
52535;BME280;38443;53.164;5.802;2023-05-19T02:50:06;103009.75;;;6.02;100.00
52535;BME280;38443;53.164;5.802;2023-05-19T02:52:31;103004.38;;;6.01;100.00
52535;BME280;38443;53.164;5.802;2023-05-19T02:54:56;103005.38;;;6.04;100.00
52535;BME280;38443;53.164;5.802;2023-05-19T02:57:22;103011.53;;;6.02;100.00
52535;BME280;38443;53.164;5.802;2023-05-19T02:59:48;103005.31;;;6.03;100.00
52535;BME280;38443;53.164;5.802;2023-05-19T03:02:13;103008.72;;;5.97;100.00
52535;BME280;38443;53.164;5.802;2023-05-19T03:04:38;103001.78;;;6.02;100.00
52535;BME280;38443;53.164;5.802;2023-05-19T03:07:07;103001.69;;;5.99;100.00
52535;BME280;38443;53.164;5.802;2023-05-19T03:09:36;102998.19;;;6.00;100.00
52535;BME280;38443;53.164;5.802;2023-05-19T03:12:02;102993.69;;;5.97;100.00
52535;BME280;38443;53.164;5.802;2023-05-19T03:14:29;102991.88;;;5.96;100.00
52535;BME280;38443;53.164;5.802;2023-05-19T03:16:54;102994.63;;;5.99;100.00
52535;BME280;38443;53.164;5.802;2023-05-19T03:19:20;103000.75;;;5.95;100.00
52535;BME280;38443;53.164;5.802;2023-05-19T03:21:45;103001.69;;;5.99;100.00
52535;BME280;38443;53.164;5.802;2023-05-19T03:24:11;103002.50;;;5.96;100.00
52535;BME280;38443;53.164;5.802;2023-05-19T03:26:37;102998.19;;;6.00;100.00
52535;BME280;38443;53.164;5.802;2023-05-19T03:29:02;102997.09;;;5.93;100.00
52535;BME280;38443;53.164;5.802;2023-05-19T03:31:27;102997.19;;;5.96;100.00
52535;BME280;38443;53.164;5.802;2023-05-19T03:33:55;102995.28;;;5.92;100.00
52535;BME280;38443;53.164;5.802;2023-05-19T03:36:22;103001.50;;;5.93;100.00
52535;BME280;38443;53.164;5.802;2023-05-19T03:38:47;102997.16;;;5.95;100.00
52535;BME280;38443;53.164;5.802;2023-05-19T03:41:13;102996.19;;;5.91;100.00
52535;BME280;38443;53.164;5.802;2023-05-19T03:43:38;102991.78;;;5.93;100.00
52535;BME280;38443;53.164;5.802;2023-05-19T03:46:03;102992.59;;;5.91;100.00
52535;BME280;38443;53.164;5.802;2023-05-19T03:48:28;102994.53;;;5.96;100.00
52535;BME280;38443;53.164;5.802;2023-05-19T03:50:54;102995.34;;;5.94;100.00
52535;BME280;38443;53.164;5.802;2023-05-19T03:53:19;102986.66;;;5.99;100.00
52535;BME280;38443;53.164;5.802;2023-05-19T03:55:45;102984.78;;;5.95;100.00
52535;BME280;38443;53.164;5.802;2023-05-19T03:58:11;102985.69;;;5.96;100.00
52535;BME280;38443;53.164;5.802;2023-05-19T04:00:39;102988.34;;;5.96;100.00
52535;BME280;38443;53.164;5.802;2023-05-19T04:03:04;102999.13;;;6.02;100.00
52535;BME280;38443;53.164;5.802;2023-05-19T04:05:30;102988.44;;;6.01;100.00
52535;BME280;38443;53.164;5.802;2023-05-19T04:07:55;102991.25;;;6.07;100.00
52535;BME280;38443;53.164;5.802;2023-05-19T04:10:20;102996.50;;;6.05;100.00
52535;BME280;38443;53.164;5.802;2023-05-19T04:12:46;102994.00;;;6.10;100.00
52535;BME280;38443;53.164;5.802;2023-05-19T04:15:12;102998.38;;;6.08;100.00
52535;BME280;38443;53.164;5.802;2023-05-19T04:17:37;102997.63;;;6.13;100.00
52535;BME280;38443;53.164;5.802;2023-05-19T04:20:02;102994.00;;;6.10;100.00
52535;BME280;38443;53.164;5.802;2023-05-19T04:22:29;102999.41;;;6.14;100.00
52535;BME280;38443;53.164;5.802;2023-05-19T04:24:55;103001.28;;;6.18;100.00
52535;BME280;38443;53.164;5.802;2023-05-19T04:27:21;102997.69;;;6.16;100.00
52535;BME280;38443;53.164;5.802;2023-05-19T04:29:46;102995.22;;;6.24;100.00
52535;BME280;38443;53.164;5.802;2023-05-19T04:32:12;102992.56;;;6.24;100.00
52535;BME280;38443;53.164;5.802;2023-05-19T04:34:41;102995.25;;;6.27;100.00
52535;BME280;38443;53.164;5.802;2023-05-19T04:37:10;102993.56;;;6.31;100.00
52535;BME280;38443;53.164;5.802;2023-05-19T04:39:36;103002.56;;;6.36;100.00
52535;BME280;38443;53.164;5.802;2023-05-19T04:42:07;102999.13;;;6.40;100.00
52535;BME280;38443;53.164;5.802;2023-05-19T04:44:32;103009.03;;;6.47;100.00
52535;BME280;38443;53.164;5.802;2023-05-19T04:46:58;103008.09;;;6.45;100.00
52535;BME280;38443;53.164;5.802;2023-05-19T04:49:23;103006.47;;;6.52;100.00
52535;BME280;38443;53.164;5.802;2023-05-19T04:51:49;103010.00;;;6.51;100.00
52535;BME280;38443;53.164;5.802;2023-05-19T04:54:16;103012.75;;;6.55;100.00
52535;BME280;38443;53.164;5.802;2023-05-19T04:56:41;103020.91;;;6.63;100.00
52535;BME280;38443;53.164;5.802;2023-05-19T04:59:08;103015.56;;;6.62;100.00
52535;BME280;38443;53.164;5.802;2023-05-19T05:01:34;103012.13;;;6.66;100.00
52535;BME280;38443;53.164;5.802;2023-05-19T05:04:04;103014.88;;;6.70;100.00
52535;BME280;38443;53.164;5.802;2023-05-19T05:06:30;103028.34;;;6.78;100.00
52535;BME280;38443;53.164;5.802;2023-05-19T05:08:55;103025.69;;;6.78;100.00
52535;BME280;38443;53.164;5.802;2023-05-19T05:11:21;103025.91;;;6.89;100.00
52535;BME280;38443;53.164;5.802;2023-05-19T05:13:47;103025.94;;;6.90;100.00
52535;BME280;38443;53.164;5.802;2023-05-19T05:16:12;103027.06;;;7.03;100.00
52535;BME280;38443;53.164;5.802;2023-05-19T05:18:38;103033.41;;;7.08;100.00
52535;BME280;38443;53.164;5.802;2023-05-19T05:21:03;103030.09;;;7.22;100.00
52535;BME280;38443;53.164;5.802;2023-05-19T05:23:29;103030.19;;;7.25;100.00
52535;BME280;38443;53.164;5.802;2023-05-19T05:25:54;103030.47;;;7.38;100.00
52535;BME280;38443;53.164;5.802;2023-05-19T05:28:20;103023.38;;;7.41;100.00
52535;BME280;38443;53.164;5.802;2023-05-19T05:30:45;103026.25;;;7.51;100.00
52535;BME280;38443;53.164;5.802;2023-05-19T05:33:10;103034.28;;;7.53;100.00
52535;BME280;38443;53.164;5.802;2023-05-19T05:35:35;103042.50;;;7.65;100.00
52535;BME280;38443;53.164;5.802;2023-05-19T05:38:01;103036.34;;;7.68;100.00
52535;BME280;38443;53.164;5.802;2023-05-19T05:40:27;103029.41;;;7.79;100.00
52535;BME280;38443;53.164;5.802;2023-05-19T05:42:52;103033.03;;;7.83;100.00
52535;BME280;38443;53.164;5.802;2023-05-19T05:45:21;103023.44;;;7.92;100.00
52535;BME280;38443;53.164;5.802;2023-05-19T05:47:46;103017.34;;;8.01;100.00
52535;BME280;38443;53.164;5.802;2023-05-19T05:50:12;103029.13;;;8.15;100.00
52535;BME280;38443;53.164;5.802;2023-05-19T05:52:38;103035.41;;;8.19;100.00
52535;BME280;38443;53.164;5.802;2023-05-19T05:55:05;103026.66;;;8.26;100.00
52535;BME280;38443;53.164;5.802;2023-05-19T05:57:31;103033.03;;;8.36;100.00
52535;BME280;38443;53.164;5.802;2023-05-19T05:59:59;103033.19;;;8.45;100.00
52535;BME280;38443;53.164;5.802;2023-05-19T06:02:25;103032.44;;;8.55;100.00
52535;BME280;38443;53.164;5.802;2023-05-19T06:04:51;103020.00;;;8.57;100.00
52535;BME280;38443;53.164;5.802;2023-05-19T06:07:18;103022.81;;;8.67;100.00
52535;BME280;38443;53.164;5.802;2023-05-19T06:09:43;103023.00;;;8.81;100.00
52535;BME280;38443;53.164;5.802;2023-05-19T06:12:09;103025.75;;;8.87;100.00
52535;BME280;38443;53.164;5.802;2023-05-19T06:14:35;103025.03;;;9.00;100.00
52535;BME280;38443;53.164;5.802;2023-05-19T06:17:00;103018.06;;;9.13;100.00
52535;BME280;38443;53.164;5.802;2023-05-19T06:19:25;103019.00;;;9.18;100.00
52535;BME280;38443;53.164;5.802;2023-05-19T06:21:51;103007.56;;;9.28;100.00
52535;BME280;38443;53.164;5.802;2023-05-19T06:24:16;103012.06;;;9.35;100.00
52535;BME280;38443;53.164;5.802;2023-05-19T06:26:41;103011.28;;;9.43;100.00
52535;BME280;38443;53.164;5.802;2023-05-19T06:29:06;103009.94;;;9.94;100.00
52535;BME280;38443;53.164;5.802;2023-05-19T06:31:32;103001.63;;;10.86;100.00
52535;BME280;38443;53.164;5.802;2023-05-19T06:33:57;102997.38;;;11.80;100.00
52535;BME280;38443;53.164;5.802;2023-05-19T06:36:23;102991.97;;;12.51;100.00
52535;BME280;38443;53.164;5.802;2023-05-19T06:38:48;102988.22;;;12.92;100.00
52535;BME280;38443;53.164;5.802;2023-05-19T06:41:13;102980.97;;;13.08;100.00
52535;BME280;38443;53.164;5.802;2023-05-19T06:43:39;102981.75;;;13.33;100.00
52535;BME280;38443;53.164;5.802;2023-05-19T06:46:04;102980.50;;;13.82;100.00
52535;BME280;38443;53.164;5.802;2023-05-19T06:48:29;102979.00;;;14.41;100.00
52535;BME280;38443;53.164;5.802;2023-05-19T06:50:55;102982.69;;;15.11;100.00
52535;BME280;38443;53.164;5.802;2023-05-19T06:53:20;102979.25;;;15.61;100.00
52535;BME280;38443;53.164;5.802;2023-05-19T06:55:46;102977.72;;;15.99;100.00
52535;BME280;38443;53.164;5.802;2023-05-19T06:58:14;102976.16;;;16.35;100.00
52535;BME280;38443;53.164;5.802;2023-05-19T07:00:40;102982.09;;;16.54;100.00
52535;BME280;38443;53.164;5.802;2023-05-19T07:03:05;102983.91;;;16.53;100.00
52535;BME280;38443;53.164;5.802;2023-05-19T07:05:30;102976.22;;;16.75;100.00
52535;BME280;38443;53.164;5.802;2023-05-19T07:07:56;102970.81;;;16.77;100.00
52535;BME280;38443;53.164;5.802;2023-05-19T07:10:21;102980.38;;;16.95;100.00
52535;BME280;38443;53.164;5.802;2023-05-19T07:12:46;102971.75;;;17.18;100.00
52535;BME280;38443;53.164;5.802;2023-05-19T07:15:12;102970.69;;;17.24;100.00
52535;BME280;38443;53.164;5.802;2023-05-19T07:17:37;102973.19;;;17.33;100.00
52535;BME280;38443;53.164;5.802;2023-05-19T07:20:03;102969.09;;;17.54;100.00
52535;BME280;38443;53.164;5.802;2023-05-19T07:22:31;102968.38;;;17.83;100.00
52535;BME280;38443;53.164;5.802;2023-05-19T07:24:59;102969.69;;;18.03;100.00
52535;BME280;38443;53.164;5.802;2023-05-19T07:27:25;102959.50;;;18.12;100.00
52535;BME280;38443;53.164;5.802;2023-05-19T07:29:50;102968.59;;;18.43;100.00
52535;BME280;38443;53.164;5.802;2023-05-19T07:32:15;102960.09;;;18.55;100.00
52535;BME280;38443;53.164;5.802;2023-05-19T07:34:41;102958.06;;;18.63;100.00
52535;BME280;38443;53.164;5.802;2023-05-19T07:37:06;102955.19;;;18.68;100.00
52535;BME280;38443;53.164;5.802;2023-05-19T07:39:33;102944.59;;;18.60;98.50
52535;BME280;38443;53.164;5.802;2023-05-19T07:41:59;102959.69;;;18.38;99.79
52535;BME280;38443;53.164;5.802;2023-05-19T07:44:24;102961.66;;;18.32;92.47
52535;BME280;38443;53.164;5.802;2023-05-19T07:46:51;102948.47;;;18.19;84.52
52535;BME280;38443;53.164;5.802;2023-05-19T07:49:16;102958.81;;;18.04;84.43
52535;BME280;38443;53.164;5.802;2023-05-19T07:51:42;102958.38;;;17.87;82.91
52535;BME280;38443;53.164;5.802;2023-05-19T07:54:07;102956.84;;;17.73;80.35
52535;BME280;38443;53.164;5.802;2023-05-19T07:56:33;102957.91;;;17.68;81.05
52535;BME280;38443;53.164;5.802;2023-05-19T07:58:58;102960.47;;;17.74;84.43
52535;BME280;38443;53.164;5.802;2023-05-19T08:01:23;102957.88;;;17.69;84.99
52535;BME280;38443;53.164;5.802;2023-05-19T08:03:49;102960.66;;;17.66;85.73
52535;BME280;38443;53.164;5.802;2023-05-19T08:06:14;102952.00;;;17.52;83.46
52535;BME280;38443;53.164;5.802;2023-05-19T08:08:39;102942.78;;;17.59;83.83
52535;BME280;38443;53.164;5.802;2023-05-19T08:11:06;102952.59;;;17.63;82.08
52535;BME280;38443;53.164;5.802;2023-05-19T08:13:31;102944.63;;;17.57;79.88
52535;BME280;38443;53.164;5.802;2023-05-19T08:15:57;102946.19;;;17.67;80.07
52535;BME280;38443;53.164;5.802;2023-05-19T08:18:27;102944.34;;;17.68;77.07
52535;BME280;38443;53.164;5.802;2023-05-19T08:20:52;102938.38;;;17.91;78.55
52535;BME280;38443;53.164;5.802;2023-05-19T08:23:18;102930.06;;;17.99;77.79
52535;BME280;38443;53.164;5.802;2023-05-19T08:25:43;102936.34;;;17.99;79.43
52535;BME280;38443;53.164;5.802;2023-05-19T08:28:09;102938.06;;;18.03;79.98
52535;BME280;38443;53.164;5.802;2023-05-19T08:30:34;102938.38;;;17.91;70.97
52535;BME280;38443;53.164;5.802;2023-05-19T08:33:00;102934.72;;;17.92;73.86
52535;BME280;38443;53.164;5.802;2023-05-19T08:35:27;102934.47;;;18.03;73.15
52535;BME280;38443;53.164;5.802;2023-05-19T08:37:52;102930.34;;;18.21;73.34
52535;BME280;38443;53.164;5.802;2023-05-19T08:40:19;102932.13;;;18.22;71.07
52535;BME280;38443;53.164;5.802;2023-05-19T08:42:44;102923.94;;;18.23;69.20
52535;BME280;38443;53.164;5.802;2023-05-19T08:45:10;102930.81;;;18.37;69.34
52535;BME280;38443;53.164;5.802;2023-05-19T08:47:35;102917.16;;;18.40;66.46
52535;BME280;38443;53.164;5.802;2023-05-19T08:50:07;102917.63;;;18.24;63.32
52535;BME280;38443;53.164;5.802;2023-05-19T08:52:50;102913.38;;;18.45;61.19
52535;BME280;38443;53.164;5.802;2023-05-19T08:55:41;102904.69;;;18.64;58.22
52535;BME280;38443;53.164;5.802;2023-05-19T08:58:08;102894.06;;;18.87;61.46
52535;BME280;38443;53.164;5.802;2023-05-19T09:00:35;102896.84;;;18.54;61.50
52535;BME280;38443;53.164;5.802;2023-05-19T09:03:01;102895.81;;;18.27;62.03
52535;BME280;38443;53.164;5.802;2023-05-19T09:05:27;102893.81;;;18.03;62.22
52535;BME280;38443;53.164;5.802;2023-05-19T09:07:52;102904.19;;;17.87;64.65
52535;BME280;38443;53.164;5.802;2023-05-19T09:10:17;102904.81;;;17.62;63.86
52535;BME280;38443;53.164;5.802;2023-05-19T09:12:44;102901.88;;;17.70;67.12
52535;BME280;38443;53.164;5.802;2023-05-19T09:15:11;102894.91;;;17.60;66.55
52535;BME280;38443;53.164;5.802;2023-05-19T09:17:39;102895.50;;;17.38;66.32
52535;BME280;38443;53.164;5.802;2023-05-19T09:20:05;102887.53;;;17.66;65.87
52535;BME280;38443;53.164;5.802;2023-05-19T09:22:40;102892.22;;;17.94;65.09
52535;BME280;38443;53.164;5.802;2023-05-19T09:25:16;102888.66;;;17.92;63.10
52535;BME280;38443;53.164;5.802;2023-05-19T09:27:42;102879.25;;;18.07;65.06
52535;BME280;38443;53.164;5.802;2023-05-19T09:30:07;102884.69;;;18.05;65.25
52535;BME280;38443;53.164;5.802;2023-05-19T09:32:34;102886.06;;;17.89;65.26
52535;BME280;38443;53.164;5.802;2023-05-19T09:35:03;102887.09;;;17.47;63.68
52535;BME280;38443;53.164;5.802;2023-05-19T09:37:29;102887.59;;;17.27;64.83
52535;BME280;38443;53.164;5.802;2023-05-19T09:39:56;102877.81;;;17.22;67.43
52535;BME280;38443;53.164;5.802;2023-05-19T09:42:25;102881.91;;;17.02;66.19
52535;BME280;38443;53.164;5.802;2023-05-19T09:45:01;102883.69;;;16.63;65.01
52535;BME280;38443;53.164;5.802;2023-05-19T09:47:27;102888.75;;;16.36;67.63
52535;BME280;38443;53.164;5.802;2023-05-19T09:49:56;102876.97;;;16.39;69.98
52535;BME280;38443;53.164;5.802;2023-05-19T09:52:22;102871.81;;;16.70;69.04
52535;BME280;38443;53.164;5.802;2023-05-19T09:54:48;102885.47;;;16.64;69.19
52535;BME280;38443;53.164;5.802;2023-05-19T09:57:15;102884.28;;;16.75;70.38
52535;BME280;38443;53.164;5.802;2023-05-19T09:59:42;102883.00;;;16.93;69.68
52535;BME280;38443;53.164;5.802;2023-05-19T10:02:12;102876.41;;;17.05;68.62
52535;BME280;38443;53.164;5.802;2023-05-19T10:04:39;102869.78;;;17.19;68.10
52535;BME280;38443;53.164;5.802;2023-05-19T10:07:06;102879.16;;;17.04;65.37
52535;BME280;38443;53.164;5.802;2023-05-19T10:09:35;102876.28;;;17.11;65.09
52535;BME280;38443;53.164;5.802;2023-05-19T10:12:02;102864.19;;;17.26;65.06
52535;BME280;38443;53.164;5.802;2023-05-19T10:14:28;102869.84;;;17.51;66.31
52535;BME280;38443;53.164;5.802;2023-05-19T10:16:58;102854.19;;;17.64;64.95
52535;BME280;38443;53.164;5.802;2023-05-19T10:19:26;102850.91;;;17.51;62.63
52535;BME280;38443;53.164;5.802;2023-05-19T10:21:52;102864.09;;;17.29;62.10
52535;BME280;38443;53.164;5.802;2023-05-19T10:24:18;102849.13;;;17.50;63.56
52535;BME280;38443;53.164;5.802;2023-05-19T10:27:07;102859.22;;;17.44;62.56
52535;BME280;38443;53.164;5.802;2023-05-19T10:29:34;102850.22;;;17.43;64.03
52535;BME280;38443;53.164;5.802;2023-05-19T10:32:06;102848.31;;;17.47;61.19
52535;BME280;38443;53.164;5.802;2023-05-19T10:37:40;102848.03;;;17.58;65.08
52535;BME280;38443;53.164;5.802;2023-05-19T10:40:20;102850.94;;;17.50;63.49
52535;BME280;38443;53.164;5.802;2023-05-19T10:45:50;102839.31;;;17.12;64.31
52535;BME280;38443;53.164;5.802;2023-05-19T10:48:18;102840.03;;;17.19;63.94
52535;BME280;38443;53.164;5.802;2023-05-19T10:50:46;102845.66;;;17.09;62.88
52535;BME280;38443;53.164;5.802;2023-05-19T10:53:15;102844.22;;;16.94;61.22
52535;BME280;38443;53.164;5.802;2023-05-19T10:55:46;102836.88;;;17.00;61.12
52535;BME280;38443;53.164;5.802;2023-05-19T11:01:00;102839.78;;;17.28;63.09
52535;BME280;38443;53.164;5.802;2023-05-19T11:03:27;102835.38;;;17.24;63.34
52535;BME280;38443;53.164;5.802;2023-05-19T11:06:16;102840.03;;;17.19;63.80
52535;BME280;38443;53.164;5.802;2023-05-19T11:08:41;102841.34;;;17.02;62.42
52535;BME280;38443;53.164;5.802;2023-05-19T11:11:16;102840.06;;;17.17;61.84
52535;BME280;38443;53.164;5.802;2023-05-19T11:13:52;102838.66;;;17.01;62.07
52535;BME280;38443;53.164;5.802;2023-05-19T11:16:26;102842.84;;;17.14;65.63
52535;BME280;38443;53.164;5.802;2023-05-19T11:18:58;102837.28;;;17.20;64.40
52535;BME280;38443;53.164;5.802;2023-05-19T11:21:23;102839.91;;;17.23;64.49
52535;BME280;38443;53.164;5.802;2023-05-19T11:24:07;102834.28;;;17.31;62.36
52535;BME280;38443;53.164;5.802;2023-05-19T11:26:39;102831.41;;;17.39;64.76
52535;BME280;38443;53.164;5.802;2023-05-19T11:29:06;102829.22;;;17.17;62.66
52535;BME280;38443;53.164;5.802;2023-05-19T11:31:32;102830.72;;;16.93;61.24
52535;BME280;38443;53.164;5.802;2023-05-19T11:34:00;102837.63;;;17.06;62.38
52535;BME280;38443;53.164;5.802;2023-05-19T11:36:25;102819.88;;;17.30;63.71
52535;BME280;38443;53.164;5.802;2023-05-19T11:38:51;102824.03;;;17.44;63.14
52535;BME280;38443;53.164;5.802;2023-05-19T11:41:17;102832.22;;;17.42;61.27
52535;BME280;38443;53.164;5.802;2023-05-19T11:43:42;102830.81;;;17.26;61.08
52535;BME280;38443;53.164;5.802;2023-05-19T11:46:08;102830.38;;;17.07;60.20
52535;BME280;38443;53.164;5.802;2023-05-19T11:48:34;102826.63;;;17.14;60.99
52535;BME280;38443;53.164;5.802;2023-05-19T11:50:59;102823.13;;;17.09;59.97
52535;BME280;38443;53.164;5.802;2023-05-19T11:53:25;102827.03;;;16.95;60.32
52535;BME280;38443;53.164;5.802;2023-05-19T11:55:51;102812.88;;;16.86;61.07
52535;BME280;38443;53.164;5.802;2023-05-19T11:58:17;102827.34;;;16.83;60.90
52535;BME280;38443;53.164;5.802;2023-05-19T12:00:49;102828.00;;;16.94;61.11
52535;BME280;38443;53.164;5.802;2023-05-19T12:03:20;102823.50;;;16.93;61.11
52535;BME280;38443;53.164;5.802;2023-05-19T12:05:47;102825.44;;;16.88;60.29
52535;BME280;38443;53.164;5.802;2023-05-19T12:08:13;102820.16;;;16.81;60.25
52535;BME280;38443;53.164;5.802;2023-05-19T12:10:39;102831.59;;;16.93;61.55
52535;BME280;38443;53.164;5.802;2023-05-19T12:13:05;102828.00;;;16.94;60.54
52535;BME280;38443;53.164;5.802;2023-05-19T12:15:34;102822.44;;;17.01;60.05
52535;BME280;38443;53.164;5.802;2023-05-19T12:18:00;102822.16;;;17.11;58.95
52535;BME280;38443;53.164;5.802;2023-05-19T12:20:27;102819.63;;;17.04;58.91
52535;BME280;38443;53.164;5.802;2023-05-19T12:22:57;102822.94;;;17.17;60.25
52535;BME280;38443;53.164;5.802;2023-05-19T12:25:23;102821.91;;;17.22;59.10
52535;BME280;38443;53.164;5.802;2023-05-19T12:27:49;102817.28;;;17.26;59.61
52535;BME280;38443;53.164;5.802;2023-05-19T12:30:17;102817.19;;;17.30;58.87
52535;BME280;38443;53.164;5.802;2023-05-19T12:32:42;102823.13;;;17.45;58.68
52535;BME280;38443;53.164;5.802;2023-05-19T12:35:08;102813.16;;;17.45;58.22
52535;BME280;38443;53.164;5.802;2023-05-19T12:37:35;102814.50;;;17.29;57.81
52535;BME280;38443;53.164;5.802;2023-05-19T12:40:02;102826.25;;;17.28;58.38
52535;BME280;38443;53.164;5.802;2023-05-19T12:42:29;102810.09;;;17.25;59.93
52535;BME280;38443;53.164;5.802;2023-05-19T12:45:01;102806.09;;;17.40;61.60
52535;BME280;38443;53.164;5.802;2023-05-19T12:47:31;102799.66;;;17.44;60.08
52535;BME280;38443;53.164;5.802;2023-05-19T12:50:07;102806.72;;;17.49;61.71
52535;BME280;38443;53.164;5.802;2023-05-19T12:52:40;102802.94;;;17.57;61.07
52535;BME280;38443;53.164;5.802;2023-05-19T12:55:07;102801.41;;;17.46;60.26
52535;BME280;38443;53.164;5.802;2023-05-19T12:57:34;102807.91;;;17.39;60.32
52535;BME280;38443;53.164;5.802;2023-05-19T13:00:04;102803.34;;;17.41;61.28
52535;BME280;38443;53.164;5.802;2023-05-19T13:02:53;102799.63;;;17.45;62.31
52535;BME280;38443;53.164;5.802;2023-05-19T13:05:21;102794.50;;;17.34;62.24
52535;BME280;38443;53.164;5.802;2023-05-19T13:07:54;102798.03;;;17.38;64.76
52535;BME280;38443;53.164;5.802;2023-05-19T13:10:20;102799.34;;;17.56;63.15
52535;BME280;38443;53.164;5.802;2023-05-19T13:12:45;102795.19;;;17.43;63.24
52535;BME280;38443;53.164;5.802;2023-05-19T13:15:11;102787.47;;;17.27;63.05
52535;BME280;38443;53.164;5.802;2023-05-19T13:17:36;102785.44;;;17.35;63.07